Time;durP1;ratioP1;P1;durP2;ratioP2;P2;SDS_P1;SDS_P2;PMS_P1;PMS_P2;Temp;Humidity;BMP_temperature;BMP_pressure;BME280_temperature;BME280_humidity;BME280_pressure;Samples;Min_cycle;Max_cycle;Signal;HPM_P1;HPM_P2
2021/12/20 00:02:26;;;;;;;35.95;26.55;;;;;;;8.07;44.80;101091.66;144992;653;6002;-84
2021/12/20 00:04:53;;;;;;;33.55;23.50;;;;;;;8.03;44.64;101084.56;144992;630;6002;-83
2021/12/20 00:07:20;;;;;;;29.12;21.20;;;;;;;7.99;44.50;101087.84;144992;572;6002;-78
2021/12/20 00:09:47;;;;;;;26.25;17.80;;;;;;;7.89;44.77;101091.72;144992;687;6002;-83
2021/12/20 00:12:13;;;;;;;23.27;16.02;;;;;;;7.86;44.89;101086.38;144992;564;6002;-82
2021/12/20 00:14:40;;;;;;;16.98;11.32;;;;;;;7.85;44.81;101083.72;144992;583;6002;-81
2021/12/20 00:17:06;;;;;;;18.48;12.48;;;;;;;7.82;44.99;101084.47;144992;678;6002;-81
2021/12/20 00:19:33;;;;;;;21.05;13.75;;;;;;;7.81;44.46;101085.28;144992;611;6002;-83
2021/12/20 00:22:00;;;;;;;22.87;16.67;;;;;;;7.77;44.91;101081.66;144992;577;6002;-80
2021/12/20 00:24:26;;;;;;;25.80;19.35;;;;;;;7.77;44.86;101091.13;144992;574;6002;-83
2021/12/20 00:26:53;;;;;;;29.48;20.77;;;;;;;7.74;44.61;101081.50;144992;569;6002;-82
2021/12/20 00:29:20;;;;;;;32.35;22.58;;;;;;;7.74;45.00;101080.63;144992;645;6002;-83
2021/12/20 00:31:46;;;;;;;30.25;22.37;;;;;;;7.73;44.93;101084.03;144992;616;6002;-80
2021/12/20 00:34:16;;;;;;;23.73;17.52;;;;;;;7.74;45.08;101085.81;144992;644;6002;-80
2021/12/20 00:36:42;;;;;;;19.37;14.95;;;;;;;7.72;44.92;101083.16;144992;594;6002;-80
2021/12/20 00:41:53;;;;;;;18.37;12.93;;;;;;;7.70;44.99;101083.88;144992;632;6004;-80
2021/12/20 00:44:20;;;;;;;17.62;11.52;;;;;;;7.68;45.06;101077.75;144992;604;6006;-80
2021/12/20 00:46:46;;;;;;;12.63;9.48;;;;;;;7.67;45.27;101076.88;144992;571;6004;-79
2021/12/20 00:49:13;;;;;;;12.57;8.70;;;;;;;7.66;45.12;101071.66;144992;599;6004;-80
2021/12/20 00:51:39;;;;;;;11.85;8.52;;;;;;;7.65;45.23;101078.50;144992;589;6004;-79
2021/12/20 00:54:05;;;;;;;11.52;7.90;;;;;;;7.65;45.24;101082.78;144992;594;6004;-81
2021/12/20 00:56:32;;;;;;;11.07;8.57;;;;;;;7.62;45.01;101076.66;144992;632;6004;-81
2021/12/20 00:58:58;;;;;;;13.82;9.07;;;;;;;7.62;45.34;101070.63;144992;591;6004;-81
2021/12/20 01:01:25;;;;;;;12.50;8.85;;;;;;;7.65;45.45;101075.03;144992;675;6004;-80
2021/12/20 01:03:51;;;;;;;13.13;9.10;;;;;;;7.62;45.24;101066.34;144992;653;6004;-80
2021/12/20 01:06:18;;;;;;;11.27;8.20;;;;;;;7.65;45.26;101068.16;144992;681;6004;-80
2021/12/20 01:08:46;;;;;;;14.10;8.52;;;;;;;7.63;45.46;101064.63;144992;666;6004;-81
2021/12/20 01:11:19;;;;;;;12.65;8.75;;;;;;;7.58;45.77;101066.09;144992;563;6004;-79
2021/12/20 01:13:48;;;;;;;12.70;8.77;;;;;;;7.58;45.61;101056.66;144992;612;6004;-80
2021/12/20 01:16:15;;;;;;;11.25;7.55;;;;;;;7.52;45.39;101058.94;144992;621;6004;-81
2021/12/20 01:18:41;;;;;;;11.68;7.72;;;;;;;7.51;45.40;101066.63;144992;562;6004;-80
2021/12/20 01:21:08;;;;;;;10.48;7.28;;;;;;;7.53;45.45;101065.88;144992;604;6004;-80
2021/12/20 01:23:36;;;;;;;10.88;6.82;;;;;;;7.56;45.44;101070.34;144992;638;6004;-81
2021/12/20 01:26:03;;;;;;;11.48;7.40;;;;;;;7.56;45.16;101055.69;144992;699;6004;-80
2021/12/20 01:28:30;;;;;;;12.23;7.35;;;;;;;7.58;45.13;101059.22;144992;636;6004;-81
2021/12/20 01:30:56;;;;;;;10.23;6.87;;;;;;;7.60;45.19;101055.03;144992;666;6004;-81
2021/12/20 01:33:23;;;;;;;11.43;6.97;;;;;;;7.61;45.01;101054.22;144992;586;6005;-80
2021/12/20 01:35:49;;;;;;;11.43;7.45;;;;;;;7.57;45.37;101054.91;144991;587;6000;-80
2021/12/20 01:38:16;;;;;;;10.32;6.78;;;;;;;7.54;45.07;101048.69;144992;599;6002;-81
2021/12/20 01:40:42;;;;;;;11.70;7.18;;;;;;;7.38;45.49;101045.41;144992;641;6003;-81
2021/12/20 01:43:11;;;;;;;10.60;6.32;;;;;;;7.41;45.45;101047.22;144992;616;6002;-80
2021/12/20 01:45:38;;;;;;;10.48;6.10;;;;;;;7.40;45.16;101033.44;144992;569;6002;-79
2021/12/20 01:48:08;;;;;;;11.12;6.00;;;;;;;7.43;45.15;101037.88;144992;673;6003;-80
2021/12/20 01:50:50;;;;;;;10.52;5.93;;;;;;;7.31;45.43;101042.44;144992;660;6002;-81
2021/12/20 01:53:24;;;;;;;9.45;5.57;;;;;;;7.01;45.47;101028.09;144992;569;6002;-81
2021/12/20 01:55:52;;;;;;;7.72;5.30;;;;;;;7.08;45.77;101031.88;144992;579;6002;-82
2021/12/20 01:58:19;;;;;;;8.38;5.12;;;;;;;7.07;45.86;101024.94;144992;619;6002;-81
2021/12/20 02:01:18;;;;;;;7.45;5.30;;;;;;;7.12;45.91;101020.88;144992;598;6002;-81
2021/12/20 02:03:55;;;;;;;8.98;4.70;;;;;;;6.86;45.75;101020.50;144992;570;6002;-82
2021/12/20 02:06:34;;;;;;;7.72;4.70;;;;;;;7.01;45.60;101016.91;144992;627;6002;-81
2021/12/20 02:09:06;;;;;;;8.63;5.10;;;;;;;6.79;46.19;101018.44;144992;581;6002;-81
2021/12/20 02:11:36;;;;;;;9.77;6.07;;;;;;;6.70;46.46;101010.22;144992;592;6002;-81
2021/12/20 02:14:04;;;;;;;10.07;6.00;;;;;;;6.52;46.84;101000.75;144992;602;6002;-81
2021/12/20 02:16:31;;;;;;;8.32;5.32;;;;;;;6.59;46.75;101001.94;144992;591;6002;-81
2021/12/20 02:19:01;;;;;;;9.57;5.45;;;;;;;6.67;46.68;100994.59;144992;598;6002;-81
2021/12/20 02:21:28;;;;;;;9.40;5.20;;;;;;;6.58;46.58;100988.97;144992;569;6002;-80
2021/12/20 02:23:54;;;;;;;8.15;5.43;;;;;;;6.76;46.50;100992.47;144992;570;6002;-81
2021/12/20 02:26:23;;;;;;;7.82;5.45;;;;;;;6.63;46.37;100990.06;144992;675;6002;-81
2021/12/20 02:28:52;;;;;;;7.85;5.12;;;;;;;6.71;46.66;100976.75;144991;579;6002;-80
2021/12/20 02:37:00;;;;;;;6.93;4.40;;;;;;;6.77;46.03;100973.59;144992;684;6002;-81
2021/12/20 02:39:26;;;;;;;6.37;4.43;;;;;;;6.88;45.99;100977.56;144992;582;6004;-81
2021/12/20 02:41:55;;;;;;;7.10;4.43;;;;;;;6.70;45.82;100971.53;144992;586;6002;-80
2021/12/20 02:44:24;;;;;;;6.37;4.00;;;;;;;6.86;46.29;100963.72;144992;672;6002;-81
2021/12/20 02:47:04;;;;;;;5.95;3.87;;;;;;;6.87;46.32;100960.34;144992;632;6002;-89
2021/12/20 02:49:31;;;;;;;7.07;4.30;;;;;;;6.93;46.36;100964.88;144992;595;6002;-81
2021/12/20 02:52:07;;;;;;;7.45;4.72;;;;;;;7.03;46.21;100963.63;144992;566;6002;-80
2021/12/20 02:54:34;;;;;;;7.32;4.62;;;;;;;7.13;45.88;100947.78;144992;577;6002;-82
2021/12/20 02:57:02;;;;;;;5.78;4.00;;;;;;;6.90;45.72;100951.84;144992;612;6002;-81
2021/12/20 02:59:29;;;;;;;6.80;4.20;;;;;;;7.10;45.93;100957.97;144992;666;6002;-80
2021/12/20 03:02:04;;;;;;;7.32;4.37;;;;;;;7.09;45.78;100956.19;144992;581;6002;-80
2021/12/20 03:04:30;;;;;;;6.97;4.53;;;;;;;6.85;46.27;100951.63;144992;638;6002;-79
2021/12/20 03:07:06;;;;;;;8.95;4.75;;;;;;;7.00;46.08;100942.84;144992;563;6002;-80
2021/12/20 03:09:37;;;;;;;6.78;4.28;;;;;;;6.97;46.06;100950.44;144992;651;6002;-80
2021/12/20 03:12:06;;;;;;;7.62;4.07;;;;;;;6.88;46.28;100944.03;144992;626;6002;-80
2021/12/20 03:14:41;;;;;;;6.20;4.07;;;;;;;6.79;46.81;100937.53;144992;586;6002;-80
2021/12/20 03:17:08;;;;;;;;;;;;;;;6.66;46.80;100941.22;144997;914;6002;-82
2021/12/20 03:19:35;;;;;;;8.63;4.80;;;;;;;6.57;47.17;100935.59;144997;583;6002;-82
2021/12/20 03:22:05;;;;;;;5.50;4.22;;;;;;;6.61;46.94;100935.81;144992;599;6002;-80
2021/12/20 03:24:31;;;;;;;6.90;4.40;;;;;;;6.64;46.86;100940.25;144992;641;6002;-80
2021/12/20 03:27:04;;;;;;;9.65;4.15;;;;;;;6.68;46.74;100940.50;144992;577;6002;-79
2021/12/20 03:29:31;;;;;;;7.20;4.28;;;;;;;6.77;46.89;100942.63;144992;563;6002;-81
2021/12/20 03:31:57;;;;;;;7.43;4.47;;;;;;;6.84;46.74;100959.28;144992;594;6010;-82
2021/12/20 03:34:24;;;;;;;7.37;4.80;;;;;;;6.95;46.21;100949.47;144991;584;6002;-81
2021/12/20 03:36:51;;;;;;;10.73;4.80;;;;;;;7.06;46.10;100963.78;144992;656;6002;-81
2021/12/20 03:39:18;;;;;;;7.20;5.20;;;;;;;6.91;46.17;100961.34;144992;571;6003;-80
2021/12/20 03:41:44;;;;;;;7.68;5.00;;;;;;;6.95;46.37;100970.13;144992;566;6002;-81
2021/12/20 03:44:11;;;;;;;9.98;5.07;;;;;;;6.96;46.31;100971.91;144992;578;6002;-81
2021/12/20 03:46:38;;;;;;;8.98;5.82;;;;;;;7.08;45.90;100975.97;144992;589;6002;-80
2021/12/20 03:49:06;;;;;;;9.18;6.20;;;;;;;7.15;46.19;100979.72;144992;604;6002;-79
2021/12/20 03:51:32;;;;;;;8.25;5.97;;;;;;;7.13;46.01;100986.50;144992;574;6002;-81
2021/12/20 03:53:59;;;;;;;10.00;6.05;;;;;;;7.18;46.07;101000.53;144992;563;6002;-80
2021/12/20 03:56:26;;;;;;;11.45;6.50;;;;;;;7.20;45.90;100998.88;144992;586;6002;-80
2021/12/20 03:58:53;;;;;;;10.85;6.40;;;;;;;7.21;45.75;101004.97;144992;589;6002;-80
2021/12/20 04:01:19;;;;;;;8.80;5.90;;;;;;;7.22;45.83;101005.03;144992;608;6002;-80
2021/12/20 04:03:49;;;;;;;9.60;5.70;;;;;;;7.24;45.80;101005.97;144992;575;6002;-81
2021/12/20 04:06:15;;;;;;;9.27;6.18;;;;;;;7.19;45.78;101004.88;144992;572;6002;-80
2021/12/20 04:08:42;;;;;;;8.00;5.10;;;;;;;7.18;45.99;101004.81;144992;587;6002;-79
2021/12/20 04:11:09;;;;;;;9.27;5.35;;;;;;;7.12;46.51;101007.09;144992;619;6002;-80
2021/12/20 04:13:37;;;;;;;9.43;5.60;;;;;;;6.86;47.17;101009.28;144992;623;6002;-79
2021/12/20 04:16:04;;;;;;;7.60;5.05;;;;;;;6.66;47.28;101014.31;144992;612;6002;-80
2021/12/20 04:18:31;;;;;;;8.20;5.32;;;;;;;6.73;47.21;101012.97;144992;565;6002;-80
2021/12/20 04:20:58;;;;;;;8.55;5.03;;;;;;;6.67;47.49;101025.56;144993;667;6002;-81
2021/12/20 04:23:24;;;;;;;8.60;5.20;;;;;;;6.74;47.23;101013.84;144993;586;6002;-80
2021/12/20 04:25:51;;;;;;;6.78;4.87;;;;;;;6.86;46.91;101020.50;144993;644;6002;-80
2021/12/20 04:28:17;;;;;;;7.45;4.75;;;;;;;6.92;47.34;101016.44;144993;620;6002;-80
2021/12/20 04:30:44;;;;;;;9.07;5.55;;;;;;;6.93;47.00;101026.84;144993;595;6002;-81
2021/12/20 04:33:11;;;;;;;8.52;5.37;;;;;;;6.91;46.94;101025.88;144992;593;6002;-80
2021/12/20 04:35:38;;;;;;;7.95;5.20;;;;;;;6.97;46.90;101028.78;144993;610;6002;-79
2021/12/20 04:38:07;;;;;;;7.40;5.05;;;;;;;7.01;46.85;101027.22;144993;601;6002;-80
2021/12/20 04:40:34;;;;;;;8.68;5.60;;;;;;;7.03;46.83;101028.16;144993;564;6002;-81
2021/12/20 04:43:01;;;;;;;7.12;4.80;;;;;;;7.08;46.87;101018.97;144993;669;6002;-80
2021/12/20 04:45:29;;;;;;;8.40;5.20;;;;;;;7.13;46.65;101025.25;144993;591;6002;-82
2021/12/20 04:47:56;;;;;;;7.75;5.00;;;;;;;7.15;46.65;101030.47;144993;589;6002;-81
2021/12/20 04:50:24;;;;;;;7.07;4.72;;;;;;;7.12;46.60;101031.22;144993;587;6002;-80
2021/12/20 04:52:52;;;;;;;7.95;4.10;;;;;;;6.63;47.21;101037.37;144992;634;6002;-80
2021/12/20 04:55:18;;;;;;;7.22;4.32;;;;;;;6.83;47.21;101028.06;144992;583;6002;-80
2021/12/20 04:57:45;;;;;;;7.53;4.60;;;;;;;6.95;46.99;101026.91;144992;572;6002;-80
2021/12/20 05:00:16;;;;;;;7.97;4.60;;;;;;;7.01;47.00;101020.34;144992;624;6002;-80
2021/12/20 05:02:42;;;;;;;5.60;4.30;;;;;;;6.95;46.64;101022.66;144992;610;6002;-81
2021/12/20 05:05:09;;;;;;;6.62;4.68;;;;;;;7.00;47.18;101022.84;144991;571;6002;-80
2021/12/20 05:07:38;;;;;;;9.00;5.00;;;;;;;7.06;47.04;101026.66;144993;565;6002;-82
2021/12/20 05:10:12;;;;;;;8.52;5.00;;;;;;;7.10;46.85;101017.34;144993;597;6002;-80
2021/12/20 05:12:39;;;;;;;7.68;5.43;;;;;;;7.16;46.70;101027.06;144993;623;6002;-80
2021/12/20 05:15:07;;;;;;;8.55;5.65;;;;;;;7.14;46.73;101024.41;144993;574;6002;-80
2021/12/20 05:17:35;;;;;;;8.70;5.45;;;;;;;7.16;46.89;101022.81;144993;566;6002;-80
2021/12/20 05:20:04;;;;;;;9.93;5.93;;;;;;;7.16;46.79;101021.91;144993;597;6002;-80
2021/12/20 05:22:30;;;;;;;9.68;5.65;;;;;;;7.07;46.94;101022.34;144993;591;6002;-80
2021/12/20 05:24:57;;;;;;;8.98;5.60;;;;;;;7.01;47.25;101024.63;144993;583;6002;-80
2021/12/20 05:27:23;;;;;;;9.07;5.43;;;;;;;7.06;47.18;101025.75;144993;573;6002;-82
2021/12/20 05:29:50;;;;;;;10.63;5.90;;;;;;;7.07;46.65;101028.41;144993;594;6002;-82
2021/12/20 05:32:17;;;;;;;8.27;6.03;;;;;;;7.10;46.81;101027.69;144993;643;6002;-80
2021/12/20 05:34:43;;;;;;;11.48;5.85;;;;;;;7.11;46.58;101029.47;144993;588;6002;-80
2021/12/20 05:37:09;;;;;;;10.10;6.62;;;;;;;7.13;46.78;101033.00;144993;610;6002;-81
2021/12/20 05:39:36;;;;;;;10.88;6.68;;;;;;;7.16;46.39;101032.22;144993;581;6002;-81
2021/12/20 05:42:03;;;;;;;12.45;6.75;;;;;;;7.04;47.00;101035.12;144993;682;6002;-82
2021/12/20 05:44:29;;;;;;;10.40;7.10;;;;;;;7.01;47.15;101022.06;144993;605;6002;-83
2021/12/20 05:46:56;;;;;;;13.52;7.18;;;;;;;7.06;46.62;101020.56;144993;564;6002;-81
2021/12/20 05:49:24;;;;;;;11.05;6.78;;;;;;;7.08;46.57;101025.00;144993;579;6002;-82
2021/12/20 05:51:50;;;;;;;13.32;7.20;;;;;;;7.10;46.92;101025.09;144993;615;6002;-83
2021/12/20 05:54:17;;;;;;;15.50;7.47;;;;;;;7.15;46.96;101031.34;144993;564;6002;-81
2021/12/20 05:56:43;;;;;;;10.60;6.93;;;;;;;7.15;47.14;101028.78;144993;594;6002;-81
2021/12/20 05:59:10;;;;;;;11.77;6.55;;;;;;;7.15;47.09;101027.91;144993;587;6002;-81
2021/12/20 06:01:36;;;;;;;9.95;7.03;;;;;;;7.20;47.06;101031.59;144994;592;5002;-79
2021/12/20 06:04:03;;;;;;;13.38;7.03;;;;;;;7.18;46.96;101039.25;144994;569;5002;-80
2021/12/20 06:06:32;;;;;;;13.70;7.68;;;;;;;7.19;46.72;101038.44;144994;572;5002;-80
2021/12/20 06:09:00;;;;;;;13.75;7.15;;;;;;;7.32;46.83;101041.59;144994;586;5002;-81
2021/12/20 06:11:26;;;;;;;12.50;6.75;;;;;;;7.83;46.04;101034.56;144994;589;5002;-80
2021/12/20 06:13:53;;;;;;;10.85;6.35;;;;;;;8.39;45.70;101035.31;144994;646;5002;-80
2021/12/20 06:16:20;;;;;;;13.43;6.82;;;;;;;9.02;44.78;101032.84;144994;601;5002;-80
2021/12/20 06:18:47;;;;;;;11.55;6.20;;;;;;;9.64;44.24;101035.28;144994;572;5002;-81
2021/12/20 06:21:13;;;;;;;9.85;5.47;;;;;;;10.20;43.35;101029.53;144994;618;5002;-80
2021/12/20 06:23:40;;;;;;;8.30;5.05;;;;;;;10.75;42.70;101043.63;144994;628;5002;-81
2021/12/20 06:26:06;;;;;;;8.20;5.05;;;;;;;11.21;42.18;101035.62;144994;596;5002;-81
2021/12/20 06:28:32;;;;;;;7.62;4.93;;;;;;;11.65;41.67;101034.41;144994;601;5002;-79
2021/12/20 06:30:59;;;;;;;8.70;5.80;;;;;;;12.06;41.22;101042.59;144994;563;5002;-82
2021/12/20 06:33:26;;;;;;;9.43;5.80;;;;;;;12.44;40.69;101042.75;144994;603;5002;-81
2021/12/20 06:35:53;;;;;;;9.70;5.00;;;;;;;12.81;39.95;101033.31;144994;614;5002;-81
2021/12/20 06:38:21;;;;;;;8.35;4.93;;;;;;;13.05;39.66;101041.75;144994;619;5003;-81
2021/12/20 06:40:50;;;;;;;10.50;4.68;;;;;;;13.21;39.49;101036.91;144994;569;5002;-81
2021/12/20 06:43:17;;;;;;;8.40;5.05;;;;;;;13.36;39.21;101044.25;144994;572;5002;-81
2021/12/20 06:45:43;;;;;;;7.93;5.55;;;;;;;13.52;38.90;101041.16;144994;603;5003;-81
2021/12/20 06:48:13;;;;;;;11.00;6.18;;;;;;;13.68;39.04;101047.59;144994;615;5002;-81
2021/12/20 06:50:40;;;;;;;9.02;6.32;;;;;;;13.90;38.62;101050.66;144994;588;5002;-81
2021/12/20 06:53:06;;;;;;;11.30;6.97;;;;;;;14.16;38.40;101048.62;144994;600;5002;-81
2021/12/20 06:55:34;;;;;;;10.82;5.95;;;;;;;14.39;38.43;101051.66;144994;602;5002;-81
2021/12/20 06:58:02;;;;;;;11.77;6.10;;;;;;;14.39;36.91;101048.19;144993;589;5002;-81
2021/12/20 07:00:29;;;;;;;8.40;5.85;;;;;;;14.36;38.82;101058.56;144994;579;5002;-81
2021/12/20 07:02:55;;;;;;;9.93;6.03;;;;;;;14.38;39.26;101059.47;144994;564;5002;-81
2021/12/20 07:05:23;;;;;;;9.93;6.43;;;;;;;14.41;38.82;101063.03;144993;589;5002;-83
2021/12/20 07:07:49;;;;;;;11.07;6.60;;;;;;;14.49;39.24;101058.84;144994;565;5002;-82
2021/12/20 07:10:16;;;;;;;11.75;6.65;;;;;;;14.50;39.05;101057.09;144993;589;5002;-81
2021/12/20 07:12:42;;;;;;;8.95;6.45;;;;;;;14.50;39.06;101054.50;144994;579;5002;-83
2021/12/20 07:15:11;;;;;;;11.07;6.68;;;;;;;14.46;39.29;101056.16;144994;603;5002;-82
2021/12/20 07:17:39;;;;;;;11.07;7.37;;;;;;;14.47;39.00;101057.03;144994;565;5002;-82
2021/12/20 07:20:09;;;;;;;11.63;7.85;;;;;;;14.52;38.35;101050.16;144994;578;5002;-82
2021/12/20 07:22:36;;;;;;;12.80;9.00;;;;;;;14.44;38.44;101052.62;144994;578;5002;-82
2021/12/20 07:25:05;;;;;;;12.13;8.60;;;;;;;14.42;37.82;101067.41;144994;593;5002;-83
2021/12/20 07:27:31;;;;;;;12.93;7.65;;;;;;;14.44;38.20;101065.69;144994;600;5002;-82
2021/12/20 07:29:58;;;;;;;12.80;8.75;;;;;;;14.58;38.09;101068.56;144994;585;5002;-82
2021/12/20 07:32:25;;;;;;;12.60;8.15;;;;;;;14.62;38.50;101062.59;144994;633;5002;-81
2021/12/20 07:34:51;;;;;;;9.13;6.05;;;;;;;14.67;38.12;101062.69;144994;640;5002;-81
2021/12/20 07:37:18;;;;;;;7.25;5.30;;;;;;;14.71;38.49;101061.88;144994;563;5002;-83
2021/12/20 07:39:44;;;;;;;9.80;6.50;;;;;;;14.51;34.99;101064.97;144994;624;5002;-81
2021/12/20 07:42:11;;;;;;;9.20;6.60;;;;;;;14.57;35.52;101061.59;144994;570;5002;-82
2021/12/20 07:44:38;;;;;;;11.73;7.20;;;;;;;14.70;38.50;101062.75;144994;612;5002;-82
2021/12/20 07:47:04;;;;;;;8.13;6.70;;;;;;;14.76;38.85;101073.31;144994;600;5002;-80
2021/12/20 07:49:31;;;;;;;9.60;6.03;;;;;;;14.81;36.99;101076.88;144994;588;5002;-81
2021/12/20 07:51:57;;;;;;;9.63;6.25;;;;;;;14.83;36.42;101080.41;144994;601;5002;-83
2021/12/20 07:54:26;;;;;;;9.23;5.47;;;;;;;14.95;38.43;101078.84;144994;627;5002;-82
2021/12/20 07:56:52;;;;;;;9.55;6.45;;;;;;;14.96;37.51;101075.41;144994;633;5002;-82
2021/12/20 07:59:19;;;;;;;6.80;5.60;;;;;;;14.93;38.10;101091.88;144994;612;5002;-83
2021/12/20 08:01:45;;;;;;;8.07;5.90;;;;;;;14.99;38.33;101096.38;144994;590;5002;-80
2021/12/20 08:04:12;;;;;;;11.15;6.87;;;;;;;15.01;35.37;101086.81;144994;566;5002;-82
2021/12/20 08:06:38;;;;;;;11.85;6.65;;;;;;;15.07;38.07;101091.28;144994;648;5002;-81
2021/12/20 08:09:05;;;;;;;9.05;6.53;;;;;;;15.08;37.90;101101.75;144994;583;5002;-82
2021/12/20 08:11:33;;;;;;;11.15;6.82;;;;;;;15.10;37.01;101097.44;144994;574;5002;-82
2021/12/20 08:14:00;;;;;;;9.02;6.65;;;;;;;15.14;37.78;101104.44;144994;578;5002;-82
2021/12/20 08:16:26;;;;;;;10.48;6.70;;;;;;;15.21;37.42;101106.34;144993;781;5002;-83
2021/12/20 08:18:53;;;;;;;9.30;6.10;;;;;;;15.12;37.60;101121.00;144994;563;5002;-82
2021/12/20 08:21:21;;;;;;;9.40;6.50;;;;;;;15.23;37.30;101117.69;144994;740;5002;-82
2021/12/20 08:23:48;;;;;;;15.13;8.70;;;;;;;15.33;37.76;101110.88;144994;651;5002;-82
2021/12/20 08:26:15;;;;;;;12.37;7.50;;;;;;;15.42;37.68;101111.03;144994;604;5002;-83
2021/12/20 08:28:42;;;;;;;14.98;8.18;;;;;;;15.51;37.21;101112.94;144994;612;5002;-82
2021/12/20 08:31:09;;;;;;;11.20;7.35;;;;;;;15.57;35.70;101118.25;144994;576;5002;-82
2021/12/20 08:33:36;;;;;;;9.63;6.30;;;;;;;15.62;36.48;101122.66;144994;660;5002;-81
2021/12/20 08:36:06;;;;;;;10.35;6.40;;;;;;;15.71;36.94;101118.44;144994;602;5002;-82
2021/12/20 08:38:33;;;;;;;12.20;7.25;;;;;;;15.80;37.05;101112.53;144994;586;5002;-82
2021/12/20 08:41:00;;;;;;;15.00;8.63;;;;;;;15.90;36.59;101114.41;144994;605;5002;-82
2021/12/20 08:43:32;;;;;;;14.25;7.85;;;;;;;15.99;36.49;101118.91;144994;570;5002;-81
2021/12/20 08:46:02;;;;;;;12.05;7.55;;;;;;;16.13;36.65;101119.09;144994;585;5002;-82
2021/12/20 08:48:33;;;;;;;10.82;7.07;;;;;;;16.27;36.52;101117.53;144994;630;5002;-85
2021/12/20 08:51:06;;;;;;;12.07;7.05;;;;;;;16.41;35.92;101119.44;144994;615;5002;-81
2021/12/20 08:53:33;;;;;;;11.00;6.78;;;;;;;16.53;35.94;101123.94;144994;595;5002;-84
2021/12/20 08:56:00;;;;;;;11.52;6.75;;;;;;;16.58;36.22;101131.00;144994;600;5002;-82
2021/12/20 08:58:27;;;;;;;9.60;5.60;;;;;;;16.61;35.74;101127.53;144994;603;5002;-82
2021/12/20 09:00:55;;;;;;;9.95;5.25;;;;;;;16.41;36.05;101137.78;144994;670;5002;-84
2021/12/20 09:03:27;;;;;;;8.95;6.05;;;;;;;16.38;36.07;101142.97;144994;569;5002;-82
2021/12/20 09:05:55;;;;;;;9.52;4.95;;;;;;;15.52;36.25;101134.72;144994;597;5002;-82
2021/12/20 09:08:22;;;;;;;8.05;5.55;;;;;;;15.76;36.19;101129.94;144994;592;5002;-82
2021/12/20 09:10:49;;;;;;;7.05;4.87;;;;;;;15.89;35.87;101123.12;144994;626;5002;-83
2021/12/20 09:13:16;;;;;;;8.95;5.40;;;;;;;15.99;36.24;101128.47;144994;578;5002;-82
2021/12/20 09:15:44;;;;;;;9.82;5.07;;;;;;;16.13;35.73;101134.81;144994;586;5002;-82
2021/12/20 09:18:11;;;;;;;12.00;7.82;;;;;;;16.22;35.65;101132.28;144994;581;5002;-80
2021/12/20 09:20:39;;;;;;;13.57;6.28;;;;;;;16.32;35.42;101123.69;144994;581;5002;-82
2021/12/20 09:23:07;;;;;;;8.02;5.47;;;;;;;16.44;35.77;101129.94;144994;630;5002;-82
2021/12/20 09:25:36;;;;;;;10.80;6.12;;;;;;;16.53;35.01;101131.78;144994;600;5002;-82
2021/12/20 09:28:08;;;;;;;10.35;6.90;;;;;;;16.59;35.36;101138.00;144994;669;5002;-83
2021/12/20 09:30:35;;;;;;;8.85;6.60;;;;;;;16.67;35.01;101136.34;144994;608;5002;-82
2021/12/20 09:33:04;;;;;;;7.40;6.12;;;;;;;16.06;32.31;101133.81;144994;575;5002;-83
2021/12/20 09:35:32;;;;;;;7.20;5.90;;;;;;;15.36;35.34;101133.59;144993;617;5002;-80
2021/12/20 09:38:00;;;;;;;9.38;6.82;;;;;;;15.40;34.70;101132.81;144994;632;5002;-81
2021/12/20 09:40:36;;;;;;;7.28;5.18;;;;;;;15.71;35.82;101122.81;144994;580;5002;-83
2021/12/20 09:43:11;;;;;;;9.43;5.70;;;;;;;15.93;35.71;101118.81;144994;611;5002;-83
2021/12/20 09:45:40;;;;;;;8.82;5.45;;;;;;;16.11;35.53;101118.16;144994;620;5002;-83
2021/12/20 09:48:07;;;;;;;12.85;5.43;;;;;;;16.29;34.99;101125.41;144994;589;5002;-83
2021/12/20 09:50:34;;;;;;;7.55;5.00;;;;;;;16.43;34.67;101115.97;144994;563;5002;-82
2021/12/20 09:53:04;;;;;;;8.57;5.80;;;;;;;16.58;34.56;101107.41;144994;572;5002;-81
2021/12/20 09:55:32;;;;;;;19.00;11.38;;;;;;;16.73;34.62;101103.19;144994;576;5002;-83
2021/12/20 09:58:01;;;;;;;9.02;5.45;;;;;;;16.53;33.81;101096.00;144994;634;5002;-82
2021/12/20 10:00:28;;;;;;;7.28;5.30;;;;;;;16.59;33.63;101090.84;144994;571;5002;-84
2021/12/20 10:02:55;;;;;;;13.15;7.25;;;;;;;16.65;33.84;101096.09;144994;578;5002;-83
2021/12/20 10:05:23;;;;;;;11.65;6.55;;;;;;;16.70;34.48;101104.03;144994;582;5002;-83
2021/12/20 10:07:53;;;;;;;13.18;8.73;;;;;;;16.86;33.82;101102.47;144994;565;5002;-84
2021/12/20 10:11:04;;;;;;;12.30;9.85;;;;;;;16.92;34.09;101106.91;144994;613;5002;-89
2021/12/20 10:13:44;;;;;;;25.67;19.10;;;;;;;16.97;33.65;101103.50;144994;600;5005;-83
2021/12/20 10:16:19;;;;;;;20.67;14.30;;;;;;;17.11;33.73;101106.22;144994;579;5004;-85
2021/12/20 10:18:50;;;;;;;24.85;17.90;;;;;;;17.23;33.81;101102.84;144994;595;5004;-83
2021/12/20 10:21:19;;;;;;;10.82;8.68;;;;;;;17.27;32.11;101096.72;144994;603;5005;-82
2021/12/20 10:23:50;;;;;;;8.60;6.47;;;;;;;16.43;34.02;101105.50;144994;579;5004;-84
2021/12/20 10:26:20;;;;;;;8.25;6.55;;;;;;;16.39;34.70;101097.59;144994;581;5004;-83
2021/12/20 10:28:52;;;;;;;7.50;5.12;;;;;;;16.27;34.32;101099.19;144994;577;5005;-84
2021/12/20 10:31:27;;;;;;;11.25;8.25;;;;;;;16.10;34.48;101109.44;144994;566;5004;-83
2021/12/20 10:34:04;;;;;;;10.23;6.62;;;;;;;15.86;35.01;101103.84;144994;610;5004;-82
2021/12/20 10:36:32;;;;;;;10.77;5.82;;;;;;;15.82;35.53;101115.16;144994;611;4575;-82
2021/12/20 10:39:01;;;;;;;8.77;3.85;;;;;;;15.83;35.56;101120.41;144994;619;4574;-84
2021/12/20 10:41:35;;;;;;;6.37;4.18;;;;;;;15.88;35.18;101116.13;144993;606;6000;-84
2021/12/20 10:44:15;;;;;;;6.87;4.00;;;;;;;15.96;35.53;101127.56;144992;579;6002;-83
2021/12/20 10:46:51;;;;;;;3.97;3.33;;;;;;;15.84;35.69;101110.81;144992;579;6002;-81
2021/12/20 10:49:19;;;;;;;6.70;3.65;;;;;;;16.00;36.26;101118.03;144992;607;6002;-83
2021/12/20 10:51:51;;;;;;;5.87;3.55;;;;;;;15.90;36.08;101103.94;144992;571;6002;-85
2021/12/20 10:54:21;;;;;;;3.97;3.12;;;;;;;15.98;36.04;101097.94;144992;569;6002;-82
2021/12/20 10:56:58;;;;;;;4.57;2.92;;;;;;;16.02;36.61;101089.25;144992;634;6002;-81
2021/12/20 10:59:27;;;;;;;5.50;3.30;;;;;;;16.00;36.39;101099.69;144992;607;6002;-82
2021/12/20 11:04:59;;;;;;;3.53;2.40;;;;;;;15.63;36.94;101122.69;144992;708;6004;-83
2021/12/20 11:10:37;;;;;;;5.32;2.00;;;;;;;15.18;37.65;101123.72;144992;579;6002;-80
2021/12/20 11:13:16;;;;;;;2.55;2.20;;;;;;;15.16;37.74;101130.62;144992;587;6002;-81
2021/12/20 11:15:42;;;;;;;3.28;2.10;;;;;;;15.34;37.15;101117.88;144992;579;6002;-82
2021/12/20 11:18:16;;;;;;;3.97;2.15;;;;;;;15.35;36.93;101121.37;144992;586;6002;-83
2021/12/20 11:20:42;;;;;;;3.83;2.40;;;;;;;15.44;37.19;101116.28;144992;627;6003;-80
2021/12/20 11:23:11;;;;;;;2.72;2.25;;;;;;;15.56;37.06;101123.47;144992;579;6002;-81
2021/12/20 11:25:38;;;;;;;5.82;2.33;;;;;;;15.60;37.67;101122.66;144992;589;6002;-83
2021/12/20 11:28:05;;;;;;;2.95;2.30;;;;;;;15.73;37.61;101121.09;144992;578;6002;-82
2021/12/20 11:30:32;;;;;;;4.10;2.30;;;;;;;15.79;37.50;101121.22;144992;613;6002;-82
2021/12/20 11:32:58;;;;;;;3.67;2.20;;;;;;;15.76;37.33;101119.47;144992;580;6002;-82
2021/12/20 11:35:27;;;;;;;2.75;2.35;;;;;;;15.86;37.22;101117.84;144992;593;6002;-82
2021/12/20 11:37:53;;;;;;;5.72;2.53;;;;;;;15.92;36.96;101130.12;144992;588;6002;-82
2021/12/20 11:40:20;;;;;;;3.53;3.03;;;;;;;16.03;37.22;101131.16;144991;569;6002;-82
2021/12/20 11:42:48;;;;;;;3.12;2.17;;;;;;;16.08;36.63;101128.59;144992;730;6002;-81
2021/12/20 11:45:17;;;;;;;6.07;3.97;;;;;;;15.86;37.09;101133.56;144992;569;6002;-81
2021/12/20 11:48:01;;;;;;;3.87;2.90;;;;;;;16.03;37.10;101128.53;144992;581;6002;-83
2021/12/20 11:50:39;;;;;;;3.22;2.75;;;;;;;16.11;36.49;101131.28;144992;587;6002;-83
2021/12/20 11:53:08;;;;;;;4.47;3.30;;;;;;;16.06;36.92;101127.72;144992;610;6002;-83
2021/12/20 11:55:37;;;;;;;8.02;6.20;;;;;;;16.11;36.73;101129.56;144992;624;6002;-83